Airfield :
LOGIN :

Register | Disclaimer

   EN    FR    IT 

 










Legend :    VFR   Marginal VFR   IFR   Intensive IFR   Very Intensive IFR
Visi :
Ceiling :
>= 8 km
>= 3000ft
5 to 8 km
1000 to 3000 ft
1500m to 5 km
500 to 1000 ft
800 to 1500m
200 to 500 ft
< 800m
< 200 ft
Symbols :   Thunderstorms  Fog  Heavy snow  Heavy precipitations  Wind > 20 kt
SIGMETs :     Misc.  Thunderstorms  Icing  Turbulence  Mountain Waves  Volcanic Ashes






- Airport Elevation : 32 ft
- IATA code : NRK


ESSP - Norrköping

CURRENT METAR :
  • 161150Z 04005KT 360V070 9999 SCT035 21/16 Q1013

EXPIRED METARs :
  • 161120Z 06006KT 020V080 9999 SCT036 BKN190 21/15 Q1013
  • 161050Z 09005KT 070V130 9999 SCT036 22/16 Q1013
  • 161020Z 10006KT 060V120 9999 SCT037 21/15 Q1013
  • 160950Z 07007KT 9999 SCT033 20/15 Q1013
  • 160920Z 05005KT 020V080 9999 SCT029 20/15 Q1014
  • 160850Z VRB03KT 9999 SCT020 20/14 Q1014
  • 160820Z VRB02KT 9999 BKN024 20/15 Q1014
  • 160750Z VRB03KT 9999 SCT017 19/15 Q1014
  • 160720Z 00000KT 9999 BKN016 19/15 Q1014

TAF TAF ESSP
Valid from the 16 at 12:00 until the 16 at 15:00 UTC


161130Z 1612/1615 10006KT 9999 SCT030



MET'MAP, your aeronautical weather chart ! - Copyright ORBIFLY December 2007 - Disclaimer

ORBIFLY MET'MAP TEAM :

Programming & Development : Alexandra Zaïnal
Original concept : Baudouin d'Aumeries
Technical & hardware support : Manuel Goepfert
Assistance : Marc-Olivier Méhu




SOURCES & CREDITS :

   NOAA